Accueil
METAR-TAF:

METAR-TAF

Aéroports :

Bolzano, Italie

latitude: 46-28N, longitude: 011-20E, altitude: 262 m

Observation

Le bulletin a été fait il y a 2 heures et 28 minutes, à 21:50 UTC
Vent 2 kt de direction variable
Température 11°C
Humidité 54%
Pression 1014 hPa
Visibilité 10 km ou plus
Nuages épars à une hauteur de 11000 ft

METAR: LIPB 282150Z VRB02KT 9999 SCT110 11/02 Q1014 RMK MON INVIS

Heure: 01:18 (00:18 UTC)

Prévision

Le bulletin a été fait il y a 7 heures et 18 minutes, à 17:00 UTC
Prévision valable du 28 à 18 UTC au 29 à 18 UTC
Vent 5 kt de direction variable
Visibilité: 6000 m
Nuages épars à une hauteur de 4000 ft
Temporairement
du 29 à 15 UTC au 29 à 18 UTC
pluie

TAF: LIPB 281700Z 2818/2918 VRB05KT 6000 SCT040 TEMPO 2915/2918 RA

Observations et prévisions météorologiques de plus de 4000 aéroports (messages METAR et TAF).

Les stations disponibles sont représentées par des disques jaunes et rouges sur la carte.

Passer la souris dessus pour voir le nom de la station.

Cliquer dessus pour voir les observations et prévisions météorologiques.

Pour changer de carte: cliquez sur les boutons verts avec une croix noire pour zoomer, sur le bouton vert avec un tiret pour effectuer un zoom arrière, ou sur les flèches vertes pour les cartes adjacentes.


METAR-TAF: